Sweet Home, Texas
Current Conditions -  °F | °C
As of 1:15 PM on Monday 20 Oct 2014 (Local Time) from KT20 Reporting Station
Scattered Clouds Scattered Clouds  
Wind Chill: 80°   Ceiling: Unl
Heat Index: 81°   Visibility: 10mi
Dew Point: 62°   Wind: 3mph
Humidity: 55%   Direction: 60°ENE
Pressure: 30.03"   Gusts: NA
Location:  29.35°N, 97.07°W
Report Text: KT20 201815Z AUTO 06003KT 10SM SCT039 SCT075 27/17 A3003 RMK AO2 T02650168
Loading
Personal Weather Stations






























Interactive Weather Map New forecast layout! Learn more

10-Day Weather Forecast

Advertisements
Track Severe Weather on mobile